sensor_id;sensor_type;location;lat;lon;timestamp;P1;durP1;ratioP1;P2;durP2;ratioP2
4389;SDS011;2209;48.982;8.406;2023-04-25T00:01:25;2.80;;;2.60;;
4389;SDS011;2209;48.982;8.406;2023-04-25T00:03:48;2.97;;;2.77;;
4389;SDS011;2209;48.982;8.406;2023-04-25T00:06:10;2.73;;;2.53;;
4389;SDS011;2209;48.982;8.406;2023-04-25T00:08:33;3.10;;;2.80;;
4389;SDS011;2209;48.982;8.406;2023-04-25T00:10:57;3.37;;;2.30;;
4389;SDS011;2209;48.982;8.406;2023-04-25T00:13:19;2.73;;;2.50;;
4389;SDS011;2209;48.982;8.406;2023-04-25T00:15:42;2.47;;;2.33;;
4389;SDS011;2209;48.982;8.406;2023-04-25T00:18:04;2.40;;;2.20;;
4389;SDS011;2209;48.982;8.406;2023-04-25T00:20:27;2.70;;;2.50;;
4389;SDS011;2209;48.982;8.406;2023-04-25T00:22:50;2.53;;;2.43;;
4389;SDS011;2209;48.982;8.406;2023-04-25T00:25:13;2.70;;;2.50;;
4389;SDS011;2209;48.982;8.406;2023-04-25T00:27:36;1.97;;;1.87;;
4389;SDS011;2209;48.982;8.406;2023-04-25T00:29:59;2.67;;;2.27;;
4389;SDS011;2209;48.982;8.406;2023-04-25T00:32:21;2.57;;;2.40;;
4389;SDS011;2209;48.982;8.406;2023-04-25T00:34:44;2.17;;;2.03;;
4389;SDS011;2209;48.982;8.406;2023-04-25T00:37:06;2.20;;;2.07;;
4389;SDS011;2209;48.982;8.406;2023-04-25T00:39:30;5.53;;;2.10;;
4389;SDS011;2209;48.982;8.406;2023-04-25T00:41:53;4.03;;;2.00;;
4389;SDS011;2209;48.982;8.406;2023-04-25T00:44:17;1.93;;;1.83;;
4389;SDS011;2209;48.982;8.406;2023-04-25T00:46:39;2.43;;;2.23;;
4389;SDS011;2209;48.982;8.406;2023-04-25T00:49:02;2.20;;;2.07;;
4389;SDS011;2209;48.982;8.406;2023-04-25T00:51:24;2.20;;;2.00;;
4389;SDS011;2209;48.982;8.406;2023-04-25T00:53:48;2.10;;;1.67;;
4389;SDS011;2209;48.982;8.406;2023-04-25T00:56:11;2.37;;;2.17;;
4389;SDS011;2209;48.982;8.406;2023-04-25T00:58:33;1.87;;;1.60;;
4389;SDS011;2209;48.982;8.406;2023-04-25T01:00:57;2.10;;;2.00;;
4389;SDS011;2209;48.982;8.406;2023-04-25T01:03:20;1.97;;;1.87;;
4389;SDS011;2209;48.982;8.406;2023-04-25T01:05:42;1.77;;;1.50;;
4389;SDS011;2209;48.982;8.406;2023-04-25T01:08:05;2.40;;;2.20;;
4389;SDS011;2209;48.982;8.406;2023-04-25T01:10:27;3.70;;;2.00;;
4389;SDS011;2209;48.982;8.406;2023-04-25T01:12:49;4.10;;;2.27;;
4389;SDS011;2209;48.982;8.406;2023-04-25T01:15:12;2.60;;;1.60;;
4389;SDS011;2209;48.982;8.406;2023-04-25T01:17:35;2.23;;;2.00;;
4389;SDS011;2209;48.982;8.406;2023-04-25T01:19:58;2.47;;;2.27;;
4389;SDS011;2209;48.982;8.406;2023-04-25T01:22:21;2.60;;;2.40;;
4389;SDS011;2209;48.982;8.406;2023-04-25T01:24:44;2.50;;;2.40;;
4389;SDS011;2209;48.982;8.406;2023-04-25T01:27:06;2.80;;;2.60;;
4389;SDS011;2209;48.982;8.406;2023-04-25T01:29:29;3.10;;;2.43;;
4389;SDS011;2209;48.982;8.406;2023-04-25T01:31:52;2.60;;;2.40;;
4389;SDS011;2209;48.982;8.406;2023-04-25T01:34:14;5.27;;;2.37;;
4389;SDS011;2209;48.982;8.406;2023-04-25T01:36:36;2.47;;;2.37;;
4389;SDS011;2209;48.982;8.406;2023-04-25T01:39:00;3.50;;;2.80;;
4389;SDS011;2209;48.982;8.406;2023-04-25T01:41:22;3.60;;;2.73;;
4389;SDS011;2209;48.982;8.406;2023-04-25T01:43:45;2.97;;;2.77;;
4389;SDS011;2209;48.982;8.406;2023-04-25T01:46:07;2.87;;;2.67;;
4389;SDS011;2209;48.982;8.406;2023-04-25T01:48:29;2.30;;;2.10;;
4389;SDS011;2209;48.982;8.406;2023-04-25T01:50:51;3.20;;;2.67;;
4389;SDS011;2209;48.982;8.406;2023-04-25T01:53:13;2.87;;;2.53;;
4389;SDS011;2209;48.982;8.406;2023-04-25T01:55:37;3.40;;;2.50;;
4389;SDS011;2209;48.982;8.406;2023-04-25T01:57:59;2.50;;;2.30;;
4389;SDS011;2209;48.982;8.406;2023-04-25T02:00:24;2.13;;;2.00;;
4389;SDS011;2209;48.982;8.406;2023-04-25T02:02:46;2.90;;;2.70;;
4389;SDS011;2209;48.982;8.406;2023-04-25T02:05:08;2.50;;;2.30;;
4389;SDS011;2209;48.982;8.406;2023-04-25T02:07:30;2.70;;;2.50;;
4389;SDS011;2209;48.982;8.406;2023-04-25T02:09:53;4.27;;;2.80;;
4389;SDS011;2209;48.982;8.406;2023-04-25T02:12:17;3.07;;;2.70;;
4389;SDS011;2209;48.982;8.406;2023-04-25T02:14:39;2.63;;;2.43;;
4389;SDS011;2209;48.982;8.406;2023-04-25T02:17:01;3.10;;;2.80;;
4389;SDS011;2209;48.982;8.406;2023-04-25T02:19:24;5.63;;;2.40;;
4389;SDS011;2209;48.982;8.406;2023-04-25T02:21:46;8.60;;;2.90;;
4389;SDS011;2209;48.982;8.406;2023-04-25T02:24:08;2.97;;;2.70;;
4389;SDS011;2209;48.982;8.406;2023-04-25T02:26:31;2.97;;;2.70;;
4389;SDS011;2209;48.982;8.406;2023-04-25T02:28:54;2.67;;;2.37;;
4389;SDS011;2209;48.982;8.406;2023-04-25T02:31:16;3.23;;;3.03;;
4389;SDS011;2209;48.982;8.406;2023-04-25T02:33:38;4.03;;;3.00;;
4389;SDS011;2209;48.982;8.406;2023-04-25T02:36:00;2.93;;;2.70;;
4389;SDS011;2209;48.982;8.406;2023-04-25T02:38:23;2.73;;;2.53;;
4389;SDS011;2209;48.982;8.406;2023-04-25T02:40:45;2.00;;;1.90;;
4389;SDS011;2209;48.982;8.406;2023-04-25T02:43:07;2.80;;;2.60;;
4389;SDS011;2209;48.982;8.406;2023-04-25T02:45:31;2.70;;;2.53;;
4389;SDS011;2209;48.982;8.406;2023-04-25T02:47:53;3.63;;;2.50;;
4389;SDS011;2209;48.982;8.406;2023-04-25T02:50:15;2.73;;;2.53;;
4389;SDS011;2209;48.982;8.406;2023-04-25T02:52:38;2.73;;;2.53;;
4389;SDS011;2209;48.982;8.406;2023-04-25T02:55:00;5.17;;;2.77;;
4389;SDS011;2209;48.982;8.406;2023-04-25T02:57:23;2.90;;;2.67;;
4389;SDS011;2209;48.982;8.406;2023-04-25T02:59:45;2.60;;;2.40;;
4389;SDS011;2209;48.982;8.406;2023-04-25T03:02:09;2.60;;;2.43;;
4389;SDS011;2209;48.982;8.406;2023-04-25T03:04:31;2.97;;;2.60;;
4389;SDS011;2209;48.982;8.406;2023-04-25T03:06:53;3.80;;;2.80;;
4389;SDS011;2209;48.982;8.406;2023-04-25T03:09:16;3.60;;;3.40;;
4389;SDS011;2209;48.982;8.406;2023-04-25T03:11:38;2.70;;;2.47;;
4389;SDS011;2209;48.982;8.406;2023-04-25T03:14:00;2.70;;;2.50;;
4389;SDS011;2209;48.982;8.406;2023-04-25T03:16:22;3.13;;;2.30;;
4389;SDS011;2209;48.982;8.406;2023-04-25T03:18:46;2.80;;;2.50;;
4389;SDS011;2209;48.982;8.406;2023-04-25T03:21:10;2.50;;;2.23;;
4389;SDS011;2209;48.982;8.406;2023-04-25T03:23:32;2.53;;;2.33;;
4389;SDS011;2209;48.982;8.406;2023-04-25T03:25:54;4.60;;;2.50;;
4389;SDS011;2209;48.982;8.406;2023-04-25T03:28:21;2.13;;;2.00;;
4389;SDS011;2209;48.982;8.406;2023-04-25T03:30:43;2.97;;;2.77;;
4389;SDS011;2209;48.982;8.406;2023-04-25T03:33:05;3.03;;;2.83;;
4389;SDS011;2209;48.982;8.406;2023-04-25T03:35:29;2.40;;;2.20;;
4389;SDS011;2209;48.982;8.406;2023-04-25T03:37:51;3.53;;;2.80;;
4389;SDS011;2209;48.982;8.406;2023-04-25T03:40:13;2.80;;;2.60;;
4389;SDS011;2209;48.982;8.406;2023-04-25T03:42:35;2.80;;;2.60;;
4389;SDS011;2209;48.982;8.406;2023-04-25T03:44:57;2.37;;;2.23;;
4389;SDS011;2209;48.982;8.406;2023-04-25T03:47:19;2.53;;;2.40;;
4389;SDS011;2209;48.982;8.406;2023-04-25T03:49:41;3.30;;;3.00;;
4389;SDS011;2209;48.982;8.406;2023-04-25T03:52:06;3.70;;;3.00;;
4389;SDS011;2209;48.982;8.406;2023-04-25T03:54:28;2.37;;;2.23;;
4389;SDS011;2209;48.982;8.406;2023-04-25T03:56:50;2.93;;;2.63;;
4389;SDS011;2209;48.982;8.406;2023-04-25T03:59:12;2.60;;;2.40;;
4389;SDS011;2209;48.982;8.406;2023-04-25T04:01:34;2.73;;;2.53;;
4389;SDS011;2209;48.982;8.406;2023-04-25T04:03:57;2.83;;;2.63;;
4389;SDS011;2209;48.982;8.406;2023-04-25T04:06:19;2.30;;;2.20;;
4389;SDS011;2209;48.982;8.406;2023-04-25T04:08:42;2.63;;;2.43;;
4389;SDS011;2209;48.982;8.406;2023-04-25T04:11:05;2.50;;;2.23;;
4389;SDS011;2209;48.982;8.406;2023-04-25T04:13:27;3.13;;;2.70;;
4389;SDS011;2209;48.982;8.406;2023-04-25T04:15:50;2.97;;;2.70;;
4389;SDS011;2209;48.982;8.406;2023-04-25T04:18:13;2.40;;;2.20;;
4389;SDS011;2209;48.982;8.406;2023-04-25T04:20:37;2.97;;;2.77;;
4389;SDS011;2209;48.982;8.406;2023-04-25T04:22:59;3.13;;;2.90;;
4389;SDS011;2209;48.982;8.406;2023-04-25T04:25:23;3.17;;;2.63;;
4389;SDS011;2209;48.982;8.406;2023-04-25T04:27:49;3.40;;;2.70;;
4389;SDS011;2209;48.982;8.406;2023-04-25T04:30:12;2.47;;;2.27;;
4389;SDS011;2209;48.982;8.406;2023-04-25T04:32:34;3.33;;;3.03;;
4389;SDS011;2209;48.982;8.406;2023-04-25T04:35:00;4.13;;;2.90;;
4389;SDS011;2209;48.982;8.406;2023-04-25T04:37:23;3.60;;;2.83;;
4389;SDS011;2209;48.982;8.406;2023-04-25T04:39:46;4.00;;;3.60;;
4389;SDS011;2209;48.982;8.406;2023-04-25T04:42:09;3.80;;;3.50;;
4389;SDS011;2209;48.982;8.406;2023-04-25T04:44:31;2.50;;;2.40;;
4389;SDS011;2209;48.982;8.406;2023-04-25T04:46:56;3.50;;;3.20;;
4389;SDS011;2209;48.982;8.406;2023-04-25T04:49:18;4.20;;;3.70;;
4389;SDS011;2209;48.982;8.406;2023-04-25T04:51:41;4.10;;;3.30;;
4389;SDS011;2209;48.982;8.406;2023-04-25T04:54:07;5.17;;;3.20;;
4389;SDS011;2209;48.982;8.406;2023-04-25T04:56:35;3.03;;;2.80;;
4389;SDS011;2209;48.982;8.406;2023-04-25T04:58:58;4.00;;;3.00;;
4389;SDS011;2209;48.982;8.406;2023-04-25T05:01:22;3.67;;;2.93;;
4389;SDS011;2209;48.982;8.406;2023-04-25T05:03:44;3.03;;;2.80;;
4389;SDS011;2209;48.982;8.406;2023-04-25T05:06:06;3.33;;;2.87;;
4389;SDS011;2209;48.982;8.406;2023-04-25T05:08:32;3.50;;;3.20;;
4389;SDS011;2209;48.982;8.406;2023-04-25T05:10:54;3.50;;;3.07;;
4389;SDS011;2209;48.982;8.406;2023-04-25T05:13:16;3.30;;;3.00;;
4389;SDS011;2209;48.982;8.406;2023-04-25T05:15:40;3.33;;;3.03;;
4389;SDS011;2209;48.982;8.406;2023-04-25T05:18:02;5.90;;;3.17;;
4389;SDS011;2209;48.982;8.406;2023-04-25T05:20:24;3.13;;;2.93;;
4389;SDS011;2209;48.982;8.406;2023-04-25T05:22:46;3.40;;;3.13;;
4389;SDS011;2209;48.982;8.406;2023-04-25T05:25:08;4.73;;;3.53;;
4389;SDS011;2209;48.982;8.406;2023-04-25T05:27:31;3.57;;;3.13;;
4389;SDS011;2209;48.982;8.406;2023-04-25T05:29:53;3.27;;;2.97;;
4389;SDS011;2209;48.982;8.406;2023-04-25T05:32:16;3.33;;;3.03;;
4389;SDS011;2209;48.982;8.406;2023-04-25T05:34:38;2.90;;;2.57;;
4389;SDS011;2209;48.982;8.406;2023-04-25T05:37:00;4.60;;;3.20;;
4389;SDS011;2209;48.982;8.406;2023-04-25T05:39:22;2.67;;;2.43;;
4389;SDS011;2209;48.982;8.406;2023-04-25T05:41:44;2.97;;;2.73;;
4389;SDS011;2209;48.982;8.406;2023-04-25T05:44:06;3.50;;;3.20;;
4389;SDS011;2209;48.982;8.406;2023-04-25T05:46:28;3.87;;;3.50;;
4389;SDS011;2209;48.982;8.406;2023-04-25T05:48:52;4.40;;;3.70;;
4389;SDS011;2209;48.982;8.406;2023-04-25T05:51:14;5.13;;;3.00;;
4389;SDS011;2209;48.982;8.406;2023-04-25T05:53:36;7.37;;;3.23;;
4389;SDS011;2209;48.982;8.406;2023-04-25T05:55:58;3.00;;;2.80;;
4389;SDS011;2209;48.982;8.406;2023-04-25T05:58:20;2.87;;;2.67;;
4389;SDS011;2209;48.982;8.406;2023-04-25T06:00:42;4.00;;;3.20;;
4389;SDS011;2209;48.982;8.406;2023-04-25T06:03:04;6.00;;;3.10;;
4389;SDS011;2209;48.982;8.406;2023-04-25T06:05:31;5.33;;;3.20;;
4389;SDS011;2209;48.982;8.406;2023-04-25T06:07:53;3.53;;;3.27;;
4389;SDS011;2209;48.982;8.406;2023-04-25T06:10:15;3.20;;;2.87;;
4389;SDS011;2209;48.982;8.406;2023-04-25T06:12:37;9.23;;;3.67;;
4389;SDS011;2209;48.982;8.406;2023-04-25T06:14:59;3.93;;;3.10;;
4389;SDS011;2209;48.982;8.406;2023-04-25T06:17:21;3.33;;;3.03;;
4389;SDS011;2209;48.982;8.406;2023-04-25T06:19:43;5.60;;;3.23;;
4389;SDS011;2209;48.982;8.406;2023-04-25T06:22:07;3.47;;;3.20;;
4389;SDS011;2209;48.982;8.406;2023-04-25T06:24:29;2.87;;;2.67;;
4389;SDS011;2209;48.982;8.406;2023-04-25T06:26:51;3.60;;;3.30;;
4389;SDS011;2209;48.982;8.406;2023-04-25T06:29:14;3.63;;;3.33;;
4389;SDS011;2209;48.982;8.406;2023-04-25T06:31:38;3.20;;;2.53;;
4389;SDS011;2209;48.982;8.406;2023-04-25T06:34:00;5.63;;;3.63;;
4389;SDS011;2209;48.982;8.406;2023-04-25T06:36:22;3.73;;;3.43;;
4389;SDS011;2209;48.982;8.406;2023-04-25T06:38:47;3.83;;;3.40;;
4389;SDS011;2209;48.982;8.406;2023-04-25T06:41:09;2.57;;;2.40;;
4389;SDS011;2209;48.982;8.406;2023-04-25T06:43:31;3.00;;;2.67;;
4389;SDS011;2209;48.982;8.406;2023-04-25T06:45:54;4.60;;;3.53;;
4389;SDS011;2209;48.982;8.406;2023-04-25T06:48:16;4.00;;;3.40;;
4389;SDS011;2209;48.982;8.406;2023-04-25T06:50:38;6.10;;;3.30;;
4389;SDS011;2209;48.982;8.406;2023-04-25T06:53:00;4.03;;;3.63;;
4389;SDS011;2209;48.982;8.406;2023-04-25T06:55:24;3.30;;;3.10;;
4389;SDS011;2209;48.982;8.406;2023-04-25T06:57:46;3.40;;;3.10;;
4389;SDS011;2209;48.982;8.406;2023-04-25T07:00:08;3.80;;;3.47;;
4389;SDS011;2209;48.982;8.406;2023-04-25T07:02:31;6.30;;;4.80;;
4389;SDS011;2209;48.982;8.406;2023-04-25T07:04:53;5.30;;;4.50;;
4389;SDS011;2209;48.982;8.406;2023-04-25T07:07:19;4.17;;;3.70;;
4389;SDS011;2209;48.982;8.406;2023-04-25T07:09:41;4.20;;;3.70;;
4389;SDS011;2209;48.982;8.406;2023-04-25T07:12:05;6.80;;;4.03;;
4389;SDS011;2209;48.982;8.406;2023-04-25T07:14:27;3.57;;;3.23;;
4389;SDS011;2209;48.982;8.406;2023-04-25T07:16:49;3.37;;;3.07;;
4389;SDS011;2209;48.982;8.406;2023-04-25T07:19:11;6.10;;;3.37;;
4389;SDS011;2209;48.982;8.406;2023-04-25T07:21:33;3.47;;;3.20;;
4389;SDS011;2209;48.982;8.406;2023-04-25T07:23:56;3.00;;;2.73;;
4389;SDS011;2209;48.982;8.406;2023-04-25T07:26:18;3.83;;;3.00;;
4389;SDS011;2209;48.982;8.406;2023-04-25T07:28:42;4.37;;;3.17;;
4389;SDS011;2209;48.982;8.406;2023-04-25T07:31:04;4.03;;;3.60;;
4389;SDS011;2209;48.982;8.406;2023-04-25T07:33:26;3.60;;;3.30;;
4389;SDS011;2209;48.982;8.406;2023-04-25T07:35:48;4.23;;;3.83;;
4389;SDS011;2209;48.982;8.406;2023-04-25T07:38:11;7.30;;;4.40;;
4389;SDS011;2209;48.982;8.406;2023-04-25T07:40:33;5.17;;;3.87;;
4389;SDS011;2209;48.982;8.406;2023-04-25T07:42:55;4.13;;;3.77;;
4389;SDS011;2209;48.982;8.406;2023-04-25T07:45:19;6.80;;;3.70;;
4389;SDS011;2209;48.982;8.406;2023-04-25T07:47:41;4.07;;;3.67;;
4389;SDS011;2209;48.982;8.406;2023-04-25T07:50:03;2.60;;;2.40;;
4389;SDS011;2209;48.982;8.406;2023-04-25T07:52:26;4.00;;;3.60;;
4389;SDS011;2209;48.982;8.406;2023-04-25T07:54:48;4.53;;;4.10;;
4389;SDS011;2209;48.982;8.406;2023-04-25T07:57:10;4.57;;;4.20;;
4389;SDS011;2209;48.982;8.406;2023-04-25T07:59:34;3.93;;;3.60;;
4389;SDS011;2209;48.982;8.406;2023-04-25T08:01:57;4.37;;;3.83;;
4389;SDS011;2209;48.982;8.406;2023-04-25T08:04:20;4.63;;;4.07;;
4389;SDS011;2209;48.982;8.406;2023-04-25T08:06:42;4.47;;;3.53;;
4389;SDS011;2209;48.982;8.406;2023-04-25T08:09:05;4.40;;;4.00;;
4389;SDS011;2209;48.982;8.406;2023-04-25T08:11:28;5.23;;;4.40;;
4389;SDS011;2209;48.982;8.406;2023-04-25T08:13:50;4.23;;;3.70;;
4389;SDS011;2209;48.982;8.406;2023-04-25T08:16:12;6.37;;;5.20;;
4389;SDS011;2209;48.982;8.406;2023-04-25T08:18:35;4.90;;;4.50;;
4389;SDS011;2209;48.982;8.406;2023-04-25T08:20:57;5.40;;;4.20;;
4389;SDS011;2209;48.982;8.406;2023-04-25T08:23:20;5.07;;;4.60;;
4389;SDS011;2209;48.982;8.406;2023-04-25T08:25:42;4.77;;;4.37;;
4389;SDS011;2209;48.982;8.406;2023-04-25T08:28:05;10.30;;;6.00;;
4389;SDS011;2209;48.982;8.406;2023-04-25T08:30:27;7.50;;;5.40;;
4389;SDS011;2209;48.982;8.406;2023-04-25T08:32:49;6.80;;;5.07;;
4389;SDS011;2209;48.982;8.406;2023-04-25T08:35:13;5.93;;;5.03;;
4389;SDS011;2209;48.982;8.406;2023-04-25T08:37:36;7.40;;;5.50;;
4389;SDS011;2209;48.982;8.406;2023-04-25T08:39:58;6.33;;;5.43;;
4389;SDS011;2209;48.982;8.406;2023-04-25T08:42:20;6.63;;;5.00;;
4389;SDS011;2209;48.982;8.406;2023-04-25T08:44:43;6.47;;;5.73;;
4389;SDS011;2209;48.982;8.406;2023-04-25T08:47:06;8.57;;;5.47;;
4389;SDS011;2209;48.982;8.406;2023-04-25T08:49:28;5.90;;;5.00;;
4389;SDS011;2209;48.982;8.406;2023-04-25T08:51:53;6.23;;;5.63;;
4389;SDS011;2209;48.982;8.406;2023-04-25T08:54:20;8.60;;;5.20;;
4389;SDS011;2209;48.982;8.406;2023-04-25T08:56:47;8.43;;;5.77;;
4389;SDS011;2209;48.982;8.406;2023-04-25T08:59:09;6.67;;;5.93;;
4389;SDS011;2209;48.982;8.406;2023-04-25T09:01:32;13.93;;;6.27;;
4389;SDS011;2209;48.982;8.406;2023-04-25T09:03:55;7.33;;;5.77;;
4389;SDS011;2209;48.982;8.406;2023-04-25T09:06:19;7.53;;;5.90;;
4389;SDS011;2209;48.982;8.406;2023-04-25T09:08:42;12.90;;;6.10;;
4389;SDS011;2209;48.982;8.406;2023-04-25T09:11:04;9.50;;;6.20;;
4389;SDS011;2209;48.982;8.406;2023-04-25T09:13:27;5.83;;;5.27;;
4389;SDS011;2209;48.982;8.406;2023-04-25T09:15:50;8.40;;;6.60;;
4389;SDS011;2209;48.982;8.406;2023-04-25T09:18:13;6.63;;;5.50;;
4389;SDS011;2209;48.982;8.406;2023-04-25T09:20:42;5.17;;;4.57;;
4389;SDS011;2209;48.982;8.406;2023-04-25T09:23:05;7.73;;;5.70;;
4389;SDS011;2209;48.982;8.406;2023-04-25T09:25:29;6.70;;;6.00;;
4389;SDS011;2209;48.982;8.406;2023-04-25T09:27:56;5.20;;;4.30;;
4389;SDS011;2209;48.982;8.406;2023-04-25T09:30:26;5.93;;;5.43;;
4389;SDS011;2209;48.982;8.406;2023-04-25T09:32:50;6.27;;;5.63;;
4389;SDS011;2209;48.982;8.406;2023-04-25T09:35:12;6.17;;;5.57;;
4389;SDS011;2209;48.982;8.406;2023-04-25T09:37:45;7.30;;;6.60;;
4389;SDS011;2209;48.982;8.406;2023-04-25T09:40:07;9.83;;;7.63;;
4389;SDS011;2209;48.982;8.406;2023-04-25T09:42:32;7.60;;;5.40;;
4389;SDS011;2209;48.982;8.406;2023-04-25T09:44:55;9.00;;;6.07;;
4389;SDS011;2209;48.982;8.406;2023-04-25T09:47:18;7.87;;;6.37;;
4389;SDS011;2209;48.982;8.406;2023-04-25T09:49:42;7.53;;;5.23;;
4389;SDS011;2209;48.982;8.406;2023-04-25T09:52:05;6.83;;;5.80;;
4389;SDS011;2209;48.982;8.406;2023-04-25T09:54:27;5.27;;;4.73;;
4389;SDS011;2209;48.982;8.406;2023-04-25T09:56:49;8.10;;;3.97;;
4389;SDS011;2209;48.982;8.406;2023-04-25T09:59:14;3.87;;;3.57;;
4389;SDS011;2209;48.982;8.406;2023-04-25T10:01:37;3.30;;;2.87;;
4389;SDS011;2209;48.982;8.406;2023-04-25T10:04:01;4.00;;;2.83;;
4389;SDS011;2209;48.982;8.406;2023-04-25T10:06:27;7.27;;;3.57;;
4389;SDS011;2209;48.982;8.406;2023-04-25T10:08:50;3.50;;;3.10;;
4389;SDS011;2209;48.982;8.406;2023-04-25T10:11:16;3.20;;;2.97;;
4389;SDS011;2209;48.982;8.406;2023-04-25T10:13:39;3.30;;;2.93;;
4389;SDS011;2209;48.982;8.406;2023-04-25T10:16:04;3.40;;;3.10;;
4389;SDS011;2209;48.982;8.406;2023-04-25T10:18:29;5.00;;;3.50;;
4389;SDS011;2209;48.982;8.406;2023-04-25T10:20:52;3.80;;;3.50;;
4389;SDS011;2209;48.982;8.406;2023-04-25T10:23:15;5.40;;;4.10;;
4389;SDS011;2209;48.982;8.406;2023-04-25T10:25:38;6.33;;;5.73;;
4389;SDS011;2209;48.982;8.406;2023-04-25T10:28:02;8.43;;;4.17;;
4389;SDS011;2209;48.982;8.406;2023-04-25T10:30:25;9.13;;;5.33;;
4389;SDS011;2209;48.982;8.406;2023-04-25T10:32:49;7.27;;;4.60;;
4389;SDS011;2209;48.982;8.406;2023-04-25T10:35:12;4.57;;;4.17;;
4389;SDS011;2209;48.982;8.406;2023-04-25T10:37:36;5.67;;;5.17;;
4389;SDS011;2209;48.982;8.406;2023-04-25T10:39:58;7.83;;;5.37;;
4389;SDS011;2209;48.982;8.406;2023-04-25T10:42:30;8.70;;;6.03;;
4389;SDS011;2209;48.982;8.406;2023-04-25T10:45:00;6.30;;;5.50;;
4389;SDS011;2209;48.982;8.406;2023-04-25T10:47:33;6.87;;;4.60;;
4389;SDS011;2209;48.982;8.406;2023-04-25T10:49:57;10.40;;;6.03;;
4389;SDS011;2209;48.982;8.406;2023-04-25T10:52:27;6.70;;;4.70;;
4389;SDS011;2209;48.982;8.406;2023-04-25T10:54:51;4.70;;;4.20;;
4389;SDS011;2209;48.982;8.406;2023-04-25T10:57:25;6.97;;;5.27;;
4389;SDS011;2209;48.982;8.406;2023-04-25T10:59:51;4.07;;;3.73;;
4389;SDS011;2209;48.982;8.406;2023-04-25T11:02:14;6.93;;;6.00;;
4389;SDS011;2209;48.982;8.406;2023-04-25T11:04:36;6.70;;;5.30;;
4389;SDS011;2209;48.982;8.406;2023-04-25T11:07:04;6.63;;;5.93;;
4389;SDS011;2209;48.982;8.406;2023-04-25T11:09:32;8.63;;;5.20;;
4389;SDS011;2209;48.982;8.406;2023-04-25T11:11:55;7.27;;;4.80;;
4389;SDS011;2209;48.982;8.406;2023-04-25T11:14:19;9.00;;;4.87;;
4389;SDS011;2209;48.982;8.406;2023-04-25T11:16:42;5.23;;;4.73;;
4389;SDS011;2209;48.982;8.406;2023-04-25T11:19:04;9.53;;;5.00;;
4389;SDS011;2209;48.982;8.406;2023-04-25T11:21:26;5.40;;;4.87;;
4389;SDS011;2209;48.982;8.406;2023-04-25T11:23:50;6.90;;;5.10;;
4389;SDS011;2209;48.982;8.406;2023-04-25T11:26:13;5.77;;;5.13;;
4389;SDS011;2209;48.982;8.406;2023-04-25T11:28:35;6.03;;;4.90;;
4389;SDS011;2209;48.982;8.406;2023-04-25T11:30:57;8.17;;;5.77;;
4389;SDS011;2209;48.982;8.406;2023-04-25T11:33:22;5.40;;;5.00;;
4389;SDS011;2209;48.982;8.406;2023-04-25T11:35:45;8.50;;;5.70;;
4389;SDS011;2209;48.982;8.406;2023-04-25T11:38:07;11.17;;;6.00;;
4389;SDS011;2209;48.982;8.406;2023-04-25T11:40:31;7.97;;;5.93;;
4389;SDS011;2209;48.982;8.406;2023-04-25T11:42:53;7.77;;;6.10;;
4389;SDS011;2209;48.982;8.406;2023-04-25T11:45:15;6.93;;;5.80;;
4389;SDS011;2209;48.982;8.406;2023-04-25T11:47:39;6.37;;;5.77;;
4389;SDS011;2209;48.982;8.406;2023-04-25T11:50:02;7.77;;;5.87;;
4389;SDS011;2209;48.982;8.406;2023-04-25T11:52:34;6.57;;;5.20;;
4389;SDS011;2209;48.982;8.406;2023-04-25T11:54:57;5.80;;;4.80;;
4389;SDS011;2209;48.982;8.406;2023-04-25T11:57:20;4.10;;;3.80;;
4389;SDS011;2209;48.982;8.406;2023-04-25T11:59:43;7.00;;;5.63;;
4389;SDS011;2209;48.982;8.406;2023-04-25T12:02:05;5.57;;;5.03;;
4389;SDS011;2209;48.982;8.406;2023-04-25T12:04:29;4.97;;;4.57;;
4389;SDS011;2209;48.982;8.406;2023-04-25T12:06:54;5.20;;;4.57;;
4389;SDS011;2209;48.982;8.406;2023-04-25T12:09:17;5.27;;;4.23;;
4389;SDS011;2209;48.982;8.406;2023-04-25T12:11:41;5.10;;;4.60;;
4389;SDS011;2209;48.982;8.406;2023-04-25T12:14:06;5.90;;;4.97;;
4389;SDS011;2209;48.982;8.406;2023-04-25T12:16:28;5.10;;;3.80;;
4389;SDS011;2209;48.982;8.406;2023-04-25T12:18:52;7.10;;;4.87;;
4389;SDS011;2209;48.982;8.406;2023-04-25T12:21:16;4.53;;;3.73;;
4389;SDS011;2209;48.982;8.406;2023-04-25T12:23:38;6.53;;;5.23;;
4389;SDS011;2209;48.982;8.406;2023-04-25T12:26:02;10.00;;;5.20;;
4389;SDS011;2209;48.982;8.406;2023-04-25T12:28:24;5.70;;;3.80;;
4389;SDS011;2209;48.982;8.406;2023-04-25T12:30:58;6.23;;;4.57;;
4389;SDS011;2209;48.982;8.406;2023-04-25T12:33:22;5.87;;;5.00;;
4389;SDS011;2209;48.982;8.406;2023-04-25T12:35:44;6.70;;;5.37;;
4389;SDS011;2209;48.982;8.406;2023-04-25T12:38:06;9.93;;;6.87;;
4389;SDS011;2209;48.982;8.406;2023-04-25T12:40:29;6.40;;;5.17;;
4389;SDS011;2209;48.982;8.406;2023-04-25T12:42:51;9.13;;;6.10;;
4389;SDS011;2209;48.982;8.406;2023-04-25T12:45:13;9.93;;;5.40;;
4389;SDS011;2209;48.982;8.406;2023-04-25T12:47:36;5.93;;;4.17;;
4389;SDS011;2209;48.982;8.406;2023-04-25T12:49:59;5.10;;;4.50;;
4389;SDS011;2209;48.982;8.406;2023-04-25T12:52:21;7.37;;;4.40;;
4389;SDS011;2209;48.982;8.406;2023-04-25T12:54:43;5.43;;;4.03;;
4389;SDS011;2209;48.982;8.406;2023-04-25T12:57:05;5.63;;;4.50;;
4389;SDS011;2209;48.982;8.406;2023-04-25T12:59:28;5.83;;;4.47;;
4389;SDS011;2209;48.982;8.406;2023-04-25T13:01:50;4.53;;;4.20;;
4389;SDS011;2209;48.982;8.406;2023-04-25T13:04:13;7.63;;;4.17;;
4389;SDS011;2209;48.982;8.406;2023-04-25T13:06:36;4.23;;;3.90;;
4389;SDS011;2209;48.982;8.406;2023-04-25T13:08:58;3.67;;;3.30;;
4389;SDS011;2209;48.982;8.406;2023-04-25T13:11:20;4.43;;;4.00;;
4389;SDS011;2209;48.982;8.406;2023-04-25T13:13:43;3.73;;;3.43;;
4389;SDS011;2209;48.982;8.406;2023-04-25T13:16:06;4.20;;;3.80;;
4389;SDS011;2209;48.982;8.406;2023-04-25T13:18:29;5.70;;;4.37;;
4389;SDS011;2209;48.982;8.406;2023-04-25T13:20:52;5.50;;;4.50;;
4389;SDS011;2209;48.982;8.406;2023-04-25T13:23:14;4.27;;;3.87;;
4389;SDS011;2209;48.982;8.406;2023-04-25T13:25:37;5.40;;;3.87;;
4389;SDS011;2209;48.982;8.406;2023-04-25T13:27:59;5.33;;;4.50;;
4389;SDS011;2209;48.982;8.406;2023-04-25T13:30:21;5.37;;;3.53;;
4389;SDS011;2209;48.982;8.406;2023-04-25T13:32:43;6.40;;;3.50;;
4389;SDS011;2209;48.982;8.406;2023-04-25T13:35:07;3.17;;;2.97;;
4389;SDS011;2209;48.982;8.406;2023-04-25T13:37:34;6.73;;;5.27;;
4389;SDS011;2209;48.982;8.406;2023-04-25T13:39:56;4.10;;;3.57;;
4389;SDS011;2209;48.982;8.406;2023-04-25T13:42:18;2.87;;;2.67;;
4389;SDS011;2209;48.982;8.406;2023-04-25T13:44:40;3.90;;;3.50;;
4389;SDS011;2209;48.982;8.406;2023-04-25T13:47:03;3.47;;;3.17;;
4389;SDS011;2209;48.982;8.406;2023-04-25T13:49:25;2.73;;;2.33;;
4389;SDS011;2209;48.982;8.406;2023-04-25T13:51:47;2.70;;;2.50;;
4389;SDS011;2209;48.982;8.406;2023-04-25T13:54:11;2.40;;;2.20;;
4389;SDS011;2209;48.982;8.406;2023-04-25T13:56:33;3.80;;;2.70;;
4389;SDS011;2209;48.982;8.406;2023-04-25T13:58:55;3.03;;;2.53;;
4389;SDS011;2209;48.982;8.406;2023-04-25T14:01:17;2.60;;;2.40;;
4389;SDS011;2209;48.982;8.406;2023-04-25T14:03:40;2.80;;;2.60;;
4389;SDS011;2209;48.982;8.406;2023-04-25T14:06:02;2.97;;;2.60;;
4389;SDS011;2209;48.982;8.406;2023-04-25T14:08:25;2.77;;;2.57;;
4389;SDS011;2209;48.982;8.406;2023-04-25T14:10:49;3.67;;;2.30;;
4389;SDS011;2209;48.982;8.406;2023-04-25T14:13:11;4.40;;;2.57;;
4389;SDS011;2209;48.982;8.406;2023-04-25T14:15:33;3.00;;;2.70;;
4389;SDS011;2209;48.982;8.406;2023-04-25T14:17:55;2.83;;;2.47;;
4389;SDS011;2209;48.982;8.406;2023-04-25T14:20:18;3.90;;;2.60;;
4389;SDS011;2209;48.982;8.406;2023-04-25T14:22:41;3.07;;;2.80;;
4389;SDS011;2209;48.982;8.406;2023-04-25T14:25:04;2.47;;;2.30;;
4389;SDS011;2209;48.982;8.406;2023-04-25T14:27:28;2.60;;;2.40;;
4389;SDS011;2209;48.982;8.406;2023-04-25T14:29:50;5.27;;;2.73;;
4389;SDS011;2209;48.982;8.406;2023-04-25T14:32:12;3.60;;;2.87;;
4389;SDS011;2209;48.982;8.406;2023-04-25T14:34:34;3.40;;;3.10;;
4389;SDS011;2209;48.982;8.406;2023-04-25T14:36:56;2.40;;;2.30;;
4389;SDS011;2209;48.982;8.406;2023-04-25T14:39:19;2.63;;;2.40;;
4389;SDS011;2209;48.982;8.406;2023-04-25T14:41:41;5.30;;;2.87;;
4389;SDS011;2209;48.982;8.406;2023-04-25T14:44:04;3.23;;;2.43;;
4389;SDS011;2209;48.982;8.406;2023-04-25T14:46:27;4.73;;;2.83;;
4389;SDS011;2209;48.982;8.406;2023-04-25T14:48:49;4.63;;;3.27;;